Time;durP1;ratioP1;P1;durP2;ratioP2;P2;SDS_P1;SDS_P2;PMS_P1;PMS_P2;Temp;Humidity;BMP_temperature;BMP_pressure;BME280_temperature;BME280_humidity;BME280_pressure;Samples;Min_cycle;Max_cycle;Signal;HPM_P1;HPM_P2
2023/06/10 00:04:50;;;;;;;;;;;;;;;17.69;100.00;97263.69;18570388;32;20000;-55
2023/06/10 00:14:53;;;;;;;;;;;;;;;17.57;100.00;97275.28;18569838;32;19948;-55
2023/06/10 00:24:59;;;;;;;;;;;;;;;17.44;100.00;97276.25;18568684;32;20344;-54
2023/06/10 00:35:01;;;;;;;;;;;;;;;17.34;100.00;97269.22;18568106;31;19979;-54
2023/06/10 00:45:05;;;;;;;;;;;;;;;17.19;100.00;97273.25;18553775;32;20329;-53
2023/06/10 00:55:08;;;;;;;;;;;;;;;17.01;100.00;97271.66;18553096;32;20246;-54
2023/06/10 01:05:12;;;;;;;;;;;;;;;16.81;100.00;97284.00;18566627;32;19976;-53
2023/06/10 01:15:17;;;;;;;;;;;;;;;16.65;100.00;97278.19;18551958;32;20381;-55
2023/06/10 01:25:27;;;;;;;;;;;;;;;16.53;100.00;97279.63;18565435;31;20039;-54
2023/06/10 01:35:30;;;;;;;;;;;;;;;16.39;100.00;97282.50;18564610;31;19948;-54
2023/06/10 01:45:33;;;;;;;;;;;;;;;16.23;100.00;97282.13;18549948;32;20004;-55
2023/06/10 01:55:35;;;;;;;;;;;;;;;16.09;100.00;97274.06;18549559;32;19960;-54
2023/06/10 02:05:37;;;;;;;;;;;;;;;15.97;100.00;97275.78;18562865;32;19989;-54
2023/06/10 02:15:40;;;;;;;;;;;;;;;15.82;100.00;97282.47;18562414;32;20026;-54
2023/06/10 02:25:42;;;;;;;;;;;;;;;15.69;100.00;97292.28;18562023;31;20291;-54
2023/06/10 02:35:45;;;;;;;;;;;;;;;15.58;100.00;97297.19;18561116;32;20291;-54
2023/06/10 02:45:48;;;;;;;;;;;;;;;15.48;100.00;97305.63;18546246;32;19980;-55
2023/06/10 02:55:50;;;;;;;;;;;;;;;15.34;100.00;97303.00;18578247;32;20019;-54
2023/06/10 03:05:53;;;;;;;;;;;;;;;15.22;100.00;97317.16;18582002;32;19989;-54
2023/06/10 03:15:56;;;;;;;;;;;;;;;15.08;100.00;97319.94;18581729;31;20016;-54
2023/06/10 03:26:00;;;;;;;;;;;;;;;14.98;100.00;97326.44;18581475;32;19965;-52
2023/06/10 03:36:03;;;;;;;;;;;;;;;14.86;100.00;97335.13;18581383;31;19961;-52
2023/06/10 03:46:05;;;;;;;;;;;;;;;14.76;100.00;97335.34;18581123;32;19964;-54
2023/06/10 03:56:08;;;;;;;;;;;;;;;14.69;100.00;97330.31;18580764;32;20352;-54
2023/06/10 04:06:10;;;;;;;;;;;;;;;14.64;100.00;97338.59;18572467;32;20009;-50
2023/06/10 04:16:13;;;;;;;;;;;;;;;14.64;100.00;97335.88;18569596;32;19953;-55
2023/06/10 04:26:16;;;;;;;;;;;;;;;14.69;100.00;97354.81;18569110;32;19981;-53
2023/06/10 04:36:18;;;;;;;;;;;;;;;14.80;100.00;97349.97;18568286;31;19952;-52
2023/06/10 04:46:20;;;;;;;;;;;;;;;14.99;100.00;97351.72;18553845;32;20014;-54
2023/06/10 04:56:23;;;;;;;;;;;;;;;15.21;100.00;97365.38;18553158;32;20004;-54
2023/06/10 05:06:26;;;;;;;;;;;;;;;15.49;100.00;97362.53;18566378;31;19968;-55
2023/06/10 05:16:28;;;;;;;;;;;;;;;15.82;100.00;97375.16;18565955;32;19971;-54
2023/06/10 05:26:32;;;;;;;;;;;;;;;16.17;100.00;97381.59;18565453;32;19956;-55
2023/06/10 05:36:35;;;;;;;;;;;;;;;16.57;100.00;97378.84;18564444;31;19973;-54
2023/06/10 05:46:37;;;;;;;;;;;;;;;17.03;100.00;97390.38;18564072;32;19978;-56
2023/06/10 05:56:40;;;;;;;;;;;;;;;17.54;100.00;97389.91;18563739;32;20008;-55
2023/06/10 06:06:43;;;;;;;;;;;;;;;18.00;100.00;97382.97;18562596;31;20285;-54
2023/06/10 06:16:46;;;;;;;;;;;;;;;18.54;100.00;97390.69;18548201;32;19957;-55
2023/06/10 06:26:48;;;;;;;;;;;;;;;19.11;100.00;97389.41;18561466;32;19983;-55
2023/06/10 06:36:51;;;;;;;;;;;;;;;19.75;100.00;97403.09;18561066;31;20023;-55
2023/06/10 06:46:53;;;;;;;;;;;;;;;20.25;100.00;97402.13;18547169;32;20285;-56
2023/06/10 06:56:57;;;;;;;;;;;;;;;20.65;100.00;97401.50;18560776;32;20362;-56
2023/06/10 07:06:59;;;;;;;;;;;;;;;21.04;100.00;97405.84;18546497;32;20329;-56
2023/06/10 07:17:02;;;;;;;;;;;;;;;21.33;100.00;97402.81;18560709;32;20354;-57
2023/06/10 07:27:06;;;;;;;;;;;;;;;21.71;100.00;97403.53;18560135;32;20338;-56
2023/06/10 07:37:09;;;;;;;;;;;;;;;22.17;100.00;97400.44;18563031;32;19972;-57
2023/06/10 07:47:12;;;;;;;;;;;;;;;22.42;100.00;97403.06;18556752;32;20273;-57
2023/06/10 07:57:16;;;;;;;;;;;;;;;22.71;98.32;97412.03;18556366;32;19944;-57
2023/06/10 08:07:19;;;;;;;;;;;;;;;22.94;95.27;97410.25;18570713;32;19989;-57
2023/06/10 08:17:22;;;;;;;;;;;;;;;23.16;88.04;97413.53;18569790;32;20239;-57
2023/06/10 08:27:24;;;;;;;;;;;;;;;23.49;93.09;97407.53;18568917;32;19975;-57
2023/06/10 08:37:27;;;;;;;;;;;;;;;23.85;89.24;97413.00;18567828;31;19957;-57
2023/06/10 08:47:35;;;;;;;;;;;;;;;24.11;86.28;97409.56;18567171;31;19989;-58
2023/06/10 08:57:40;;;;;;;;;;;;;;;24.33;79.33;97408.00;18567596;32;19969;-56
2023/06/10 09:07:43;;;;;;;;;;;;;;;24.56;72.54;97407.22;18567059;32;19952;-56
2023/06/10 09:17:47;;;;;;;;;;;;;;;24.84;71.96;97401.34;18566150;32;19960;-55
2023/06/10 09:27:53;;;;;;;;;;;;;;;25.21;69.56;97397.16;18565493;32;20297;-57
2023/06/10 09:37:57;;;;;;;;;;;;;;;25.41;60.49;97394.28;18564694;32;19953;-57
2023/06/10 09:48:00;;;;;;;;;;;;;;;25.62;64.41;97394.56;18549955;32;19952;-57
2023/06/10 09:58:03;;;;;;;;;;;;;;;26.04;63.42;97389.94;18562918;32;19994;-58
2023/06/10 10:08:06;;;;;;;;;;;;;;;26.38;65.70;97387.88;18562840;32;19956;-57
2023/06/10 10:18:10;;;;;;;;;;;;;;;26.80;65.61;97376.75;18562730;32;20282;-57
2023/06/10 10:28:16;;;;;;;;;;;;;;;27.07;58.49;97385.66;18562131;32;20258;-57
2023/06/10 10:38:19;;;;;;;;;;;;;;;27.64;57.52;97374.09;18546957;32;19957;-58
2023/06/10 10:48:23;;;;;;;;;;;;;;;28.03;52.99;97373.41;18560958;32;19956;-56
2023/06/10 10:58:26;;;;;;;;;;;;;;;28.40;50.40;97363.94;18560865;32;19953;-57
2023/06/10 11:08:32;;;;;;;;;;;;;;;28.84;46.44;97373.09;18560746;32;20292;-55
2023/06/10 11:18:39;;;;;;;;;;;;;;;27.69;49.23;97354.25;18572673;32;20260;-56
2023/06/10 11:28:42;;;;;;;;;;;;;;;27.46;51.34;97346.22;18572730;31;19988;-56
2023/06/10 11:38:45;;;;;;;;;;;;;;;27.53;50.91;97343.50;18557614;31;20332;-56
2023/06/10 11:48:49;;;;;;;;;;;;;;;28.46;50.14;97352.44;18557291;32;19964;-56
2023/06/10 11:58:57;;;;;;;;;;;;;;;28.42;45.25;97343.28;18571487;32;19953;-56
2023/06/10 12:09:00;;;;;;;;;;;;;;;28.58;46.27;97336.13;18570378;32;19969;-56
2023/06/10 12:19:23;;;;;;;;;;;;;;;29.75;51.09;97331.84;18569598;32;20023;-57
2023/06/10 12:29:28;;;;;;;;;;;;;;;30.48;43.81;97332.22;18568193;32;19952;-56
2023/06/10 12:39:32;;;;;;;;;;;;;;;30.79;41.69;97323.97;18554119;32;20006;-57
2023/06/10 12:49:37;;;;;;;;;;;;;;;31.32;39.58;97322.62;18568219;32;20327;-56
2023/06/10 12:59:41;;;;;;;;;;;;;;;31.17;39.61;97312.81;18567228;32;20008;-57
2023/06/10 13:09:44;;;;;;;;;;;;;;;31.41;40.10;97313.72;18552480;32;19971;-57
2023/06/10 13:19:48;;;;;;;;;;;;;;;30.53;43.23;97301.91;18566122;31;19948;-56
2023/06/10 13:29:51;;;;;;;;;;;;;;;31.17;42.47;97284.91;18565426;32;20007;-57
2023/06/10 13:39:55;;;;;;;;;;;;;;;31.89;40.53;97281.16;18564218;32;20238;-56
2023/06/10 13:49:59;;;;;;;;;;;;;;;32.25;38.25;97272.25;18549887;32;19948;-57
2023/06/10 14:00:03;;;;;;;;;;;;;;;32.50;35.82;97268.22;18563635;32;19956;-57
2023/06/10 14:10:08;;;;;;;;;;;;;;;33.49;38.55;97263.91;18562563;32;19968;-57
2023/06/10 14:20:12;;;;;;;;;;;;;;;34.19;34.62;97261.91;18562039;32;19988;-57
2023/06/10 14:30:15;;;;;;;;;;;;;;;33.88;35.52;97261.50;18546464;32;19965;-58
2023/06/10 14:40:18;;;;;;;;;;;;;;;34.21;34.75;97253.09;18560859;32;19953;-57
2023/06/10 14:50:22;;;;;;;;;;;;;;;34.49;31.83;97248.00;18560835;32;19992;-58
2023/06/10 15:00:25;;;;;;;;;;;;;;;34.09;36.45;97238.50;18560755;32;20005;-58
2023/06/10 15:10:28;;;;;;;;;;;;;;;32.35;33.57;97228.50;18533151;31;20075;-57
2023/06/10 15:20:30;;;;;;;;;;;;;;;31.58;37.25;97228.09;18560446;32;19982;-57
2023/06/10 15:30:34;;;;;;;;;;;;;;;31.42;37.40;97223.94;18559842;32;19964;-55
2023/06/10 15:40:37;;;;;;;;;;;;;;;30.70;38.73;97222.00;18559253;32;19967;-57
2023/06/10 15:50:41;;;;;;;;;;;;;;;30.20;38.29;97217.66;18559323;32;19996;-56
2023/06/10 16:00:44;;;;;;;;;;;;;;;29.82;39.57;97206.44;18565647;32;19959;-57
2023/06/10 16:10:48;;;;;;;;;;;;;;;29.17;40.10;97200.44;18556308;32;20012;-57
2023/06/10 16:20:52;;;;;;;;;;;;;;;28.99;39.78;97192.97;18542610;32;20321;-56
2023/06/10 16:30:55;;;;;;;;;;;;;;;28.89;42.12;97182.69;18569200;32;20381;-56
2023/06/10 16:40:58;;;;;;;;;;;;;;;29.66;38.27;97179.06;18568347;32;19948;-56
2023/06/10 16:51:04;;;;;;;;;;;;;;;29.64;37.77;97191.81;18568515;32;19968;-57
2023/06/10 17:01:09;;;;;;;;;;;;;;;28.73;42.02;97192.28;18567369;31;20332;-56
2023/06/10 17:11:12;;;;;;;;;;;;;;;28.18;42.66;97192.78;18566355;32;20019;-56
2023/06/10 17:21:15;;;;;;;;;;;;;;;27.81;43.02;97194.75;18565944;32;19972;-57
2023/06/10 17:31:19;;;;;;;;;;;;;;;27.82;45.17;97207.47;18566097;32;19960;-56
2023/06/10 17:41:22;;;;;;;;;;;;;;;27.63;46.49;97205.84;18565089;32;19984;-56
2023/06/10 17:51:26;;;;;;;;;;;;;;;27.72;44.90;97209.03;18564062;32;19992;-55
2023/06/10 18:01:30;;;;;;;;;;;;;;;27.84;44.69;97243.19;18563929;32;19959;-53
2023/06/10 18:11:34;;;;;;;;;;;;;;;26.84;45.65;97236.13;18562925;32;19993;-55
2023/06/10 18:21:40;;;;;;;;;;;;;;;26.22;46.83;97229.38;18561831;32;20008;-53
2023/06/10 18:31:44;;;;;;;;;;;;;;;25.86;47.33;97224.31;18562042;32;19956;-55
2023/06/10 18:41:47;;;;;;;;;;;;;;;25.52;53.58;97234.69;18561443;32;19961;-55
2023/06/10 18:51:51;;;;;;;;;;;;;;;24.94;59.72;97238.72;18561023;31;19957;-56
2023/06/10 19:01:57;;;;;;;;;;;;;;;24.28;73.22;97259.09;18560881;32;19957;-54
2023/06/10 19:12:02;;;;;;;;;;;;;;;23.82;79.54;97265.44;18545951;32;19970;-54
2023/06/10 19:22:07;;;;;;;;;;;;;;;23.41;84.41;97272.56;18560058;32;19990;-54
2023/06/10 19:32:12;;;;;;;;;;;;;;;23.03;89.00;97288.72;18548501;32;19960;-55
2023/06/10 19:42:15;;;;;;;;;;;;;;;22.65;96.60;97310.34;18571671;31;19979;-55
2023/06/10 19:52:19;;;;;;;;;;;;;;;22.06;100.00;97327.78;18571747;32;19965;-55
2023/06/10 20:02:23;;;;;;;;;;;;;;;21.52;100.00;97338.12;18570782;32;19956;-54
2023/06/10 20:12:26;;;;;;;;;;;;;;;21.09;100.00;97350.63;18570428;32;20005;-54
2023/06/10 20:22:29;;;;;;;;;;;;;;;20.97;100.00;97360.50;18569810;32;20314;-52
2023/06/10 20:32:32;;;;;;;;;;;;;;;20.82;100.00;97373.00;18569326;32;19957;-53
2023/06/10 20:42:36;;;;;;;;;;;;;;;20.72;100.00;97378.97;18567513;32;19957;-54
2023/06/10 20:52:39;;;;;;;;;;;;;;;20.65;100.00;97395.19;18567949;32;19956;-54
2023/06/10 21:02:43;;;;;;;;;;;;;;;20.59;100.00;97402.06;18567374;32;20349;-54
2023/06/10 21:12:47;;;;;;;;;;;;;;;20.41;100.00;97407.75;18566645;32;20287;-53
2023/06/10 21:22:50;;;;;;;;;;;;;;;20.26;100.00;97408.44;18551973;32;19949;-55
2023/06/10 21:32:53;;;;;;;;;;;;;;;20.12;100.00;97386.78;18551203;31;20306;-54
2023/06/10 21:42:56;;;;;;;;;;;;;;;19.95;100.00;97380.34;18564398;32;20260;-54
2023/06/10 21:52:58;;;;;;;;;;;;;;;19.85;100.00;97399.97;18564708;32;19948;-54
2023/06/10 22:03:02;;;;;;;;;;;;;;;19.72;100.00;97392.78;18563504;32;19967;-55
2023/06/10 22:13:07;;;;;;;;;;;;;;;19.59;100.00;97394.69;18563184;32;19952;-53
2023/06/10 22:23:17;;;;;;;;;;;;;;;19.44;100.00;97407.06;18562652;32;19949;-53
2023/06/10 22:33:19;;;;;;;;;;;;;;;19.28;100.00;97404.94;18548154;32;19975;-55
2023/06/10 22:43:22;;;;;;;;;;;;;;;19.16;100.00;97402.13;18561874;32;19993;-54
2023/06/10 22:53:25;;;;;;;;;;;;;;;19.00;100.00;97398.38;18561212;32;19971;-51
2023/06/10 23:03:28;;;;;;;;;;;;;;;18.78;100.00;97394.75;18561000;32;19995;-54
2023/06/10 23:13:30;;;;;;;;;;;;;;;18.54;100.00;97400.81;18571937;32;19975;-56
2023/06/10 23:23:34;;;;;;;;;;;;;;;18.27;100.00;97408.34;18559176;31;19977;-56
2023/06/10 23:33:38;;;;;;;;;;;;;;;18.01;100.00;97405.69;18572967;32;19983;-54
2023/06/10 23:43:41;;;;;;;;;;;;;;;17.77;100.00;97413.25;18571805;32;19984;-55
2023/06/10 23:53:43;;;;;;;;;;;;;;;17.56;100.00;97424.00;18571683;32;19965;-55
